Ivorydale, Ohio
Current Conditions -  °F | °C
As of 5:59 AM on Friday 24 Oct 2014 (Local Time) from KLUK Reporting Station
Haze Haze  
Wind Chill: 42°   Ceiling: 200
Heat Index: 42°   Visibility: 1.7mi
Dew Point: 41°   Wind: 0mph
Humidity: 96%   Direction: NA
Pressure: 30.14"   Gusts: NA
Location:  39.1668°N, 84.4971°W
Report Text: KLUK 240959Z AUTO 00000KT 1 3/4SM BR OVC002 06/05 A3014 RMK AO2 T00560050
Loading
Personal Weather Stations






























Interactive Weather Map
Tropical Storm Tracking
New forecast layout! Learn more

10-Day Weather Forecast

Advertisements
Track Severe Weather on mobile